createdAt,value
2023-04-17T00:01:56.844Z,6.70
2023-04-17T00:04:25.851Z,6.70
2023-04-17T00:06:54.481Z,6.70
2023-04-17T00:09:22.772Z,6.70
2023-04-17T00:11:51.064Z,6.80
2023-04-17T00:14:20.779Z,6.80
2023-04-17T00:16:49.649Z,6.80
2023-04-17T00:19:18.045Z,6.80
2023-04-17T00:21:46.352Z,6.90
2023-04-17T00:24:14.811Z,6.90
2023-04-17T00:26:43.671Z,6.80
2023-04-17T00:29:13.378Z,6.80
2023-04-17T00:31:43.719Z,6.80
2023-04-17T00:34:12.094Z,6.80
2023-04-17T00:36:40.385Z,6.80
2023-04-17T00:39:08.655Z,6.80
2023-04-17T00:41:37.044Z,6.80
2023-04-17T00:44:05.453Z,6.70
2023-04-17T00:46:33.884Z,6.80
2023-04-17T00:49:04.139Z,6.80
2023-04-17T00:51:32.827Z,6.80
2023-04-17T00:54:01.674Z,6.80
2023-04-17T00:56:31.284Z,6.70
2023-04-17T00:59:00.380Z,6.70
2023-04-17T01:01:28.665Z,6.70
2023-04-17T01:03:57.449Z,6.70
2023-04-17T01:06:27.633Z,6.70
2023-04-17T01:08:56.184Z,6.70
2023-04-17T01:11:24.476Z,6.70
2023-04-17T01:13:52.921Z,6.70
2023-04-17T01:16:21.497Z,6.70
2023-04-17T01:18:49.779Z,6.70
2023-04-17T01:21:18.212Z,6.70
2023-04-17T01:23:52.085Z,6.70
2023-04-17T01:26:23.769Z,6.80
2023-04-17T01:28:53.098Z,6.80
2023-04-17T01:31:21.664Z,6.80
2023-04-17T01:33:50.725Z,6.80
2023-04-17T01:36:19.038Z,6.80
2023-04-17T01:38:47.313Z,6.80
2023-04-17T01:41:15.666Z,6.80
2023-04-17T01:43:46.874Z,6.80
2023-04-17T01:46:15.423Z,6.80
2023-04-17T01:48:43.731Z,6.90
2023-04-17T01:51:12.004Z,6.90
2023-04-17T01:53:40.566Z,6.90
2023-04-17T01:56:08.908Z,6.90
2023-04-17T01:58:37.200Z,6.90
2023-04-17T02:01:07.515Z,6.90
2023-04-17T02:03:36.342Z,7.00
2023-04-17T02:06:04.893Z,7.00
2023-04-17T02:08:33.852Z,7.10
2023-04-17T02:11:04.966Z,7.10
2023-04-17T02:13:33.338Z,7.10
2023-04-17T02:16:01.638Z,7.20
2023-04-17T02:18:32.084Z,7.20
2023-04-17T02:21:01.840Z,7.20
2023-04-17T02:23:30.230Z,7.20
2023-04-17T02:25:58.598Z,7.20
2023-04-17T02:28:26.968Z,7.20
2023-04-17T02:30:55.312Z,7.20
2023-04-17T02:33:23.757Z,7.20
2023-04-17T02:35:53.527Z,7.10
2023-04-17T02:38:30.533Z,7.20
2023-04-17T02:40:59.384Z,7.20
2023-04-17T02:43:30.331Z,7.20
2023-04-17T02:45:58.744Z,7.20
2023-04-17T02:48:28.594Z,7.20
2023-04-17T02:50:58.682Z,7.20
2023-04-17T02:53:27.027Z,7.20
2023-04-17T02:55:55.334Z,7.20
2023-04-17T02:58:26.678Z,7.20
2023-04-17T03:01:00.511Z,7.20
2023-04-17T03:03:31.228Z,7.20
2023-04-17T03:06:01.419Z,7.20
2023-04-17T03:08:35.697Z,7.30
2023-04-17T03:11:04.656Z,7.30
2023-04-17T03:13:34.214Z,7.20
2023-04-17T03:16:03.619Z,7.20
2023-04-17T03:18:33.641Z,7.20
2023-04-17T03:21:03.462Z,7.20
2023-04-17T03:23:31.758Z,7.20
2023-04-17T03:26:00.260Z,7.20
2023-04-17T03:28:29.450Z,7.20
2023-04-17T03:30:59.569Z,7.20
2023-04-17T03:33:28.124Z,7.20
2023-04-17T03:35:59.364Z,7.20
2023-04-17T03:38:29.184Z,7.20
2023-04-17T03:40:57.593Z,7.20
2023-04-17T03:43:26.836Z,7.20
2023-04-17T03:45:55.112Z,7.20
2023-04-17T03:48:24.642Z,7.20
2023-04-17T03:50:53.382Z,7.20
2023-04-17T03:53:22.319Z,7.30
2023-04-17T03:55:52.988Z,7.20
2023-04-17T03:58:28.581Z,7.20
2023-04-17T04:00:58.751Z,7.20
2023-04-17T04:03:31.280Z,7.20
2023-04-17T04:06:00.891Z,7.20
2023-04-17T04:08:29.772Z,7.20
2023-04-17T04:11:00.814Z,7.20
2023-04-17T04:13:36.270Z,7.30
2023-04-17T04:16:05.688Z,7.30
2023-04-17T04:18:36.380Z,7.30
2023-04-17T04:21:06.319Z,7.40
2023-04-17T04:23:39.950Z,7.30
2023-04-17T04:26:11.848Z,7.30
2023-04-17T04:28:49.350Z,7.30
2023-04-17T04:31:26.868Z,7.30
2023-04-17T04:33:56.231Z,7.20
2023-04-17T04:36:25.309Z,7.20
2023-04-17T04:39:07.026Z,7.20
2023-04-17T04:41:39.034Z,7.10
2023-04-17T04:44:10.770Z,7.10
2023-04-17T04:46:40.890Z,7.00
2023-04-17T04:49:09.726Z,7.00
2023-04-17T04:51:38.340Z,7.00
2023-04-17T04:54:08.454Z,7.00
2023-04-17T04:56:46.580Z,7.00
2023-04-17T04:59:17.077Z,7.00
2023-04-17T05:01:54.689Z,7.00
2023-04-17T05:04:25.075Z,7.00
2023-04-17T05:06:57.245Z,7.10
2023-04-17T05:09:25.827Z,7.10
2023-04-17T05:11:58.900Z,7.20
2023-04-17T05:14:28.039Z,7.20
2023-04-17T05:16:56.556Z,7.20
2023-04-17T05:19:25.927Z,7.20
2023-04-17T05:21:59.310Z,7.20
2023-04-17T05:24:27.852Z,7.30
2023-04-17T05:26:57.259Z,7.30
2023-04-17T05:29:27.559Z,7.30
2023-04-17T05:31:57.530Z,7.30
2023-04-17T05:34:44.553Z,7.50
2023-04-17T05:37:13.707Z,7.60
2023-04-17T05:39:42.137Z,7.60
2023-04-17T05:42:10.590Z,7.70
2023-04-17T05:44:40.537Z,7.70
2023-04-17T05:47:09.205Z,7.80
2023-04-17T05:49:38.460Z,7.80
2023-04-17T05:52:06.877Z,7.80
2023-04-17T05:54:39.804Z,7.80
2023-04-17T05:59:42.113Z,7.90
2023-04-17T06:02:11.750Z,8.20
2023-04-17T06:04:41.622Z,8.10
2023-04-17T06:07:11.051Z,8.20
2023-04-17T06:09:41.105Z,8.30
2023-04-17T06:12:18.204Z,8.20
2023-04-17T06:14:48.274Z,8.30
2023-04-17T06:17:20.545Z,8.40
2023-04-17T06:19:51.372Z,8.40
2023-04-17T06:22:19.833Z,8.40
2023-04-17T06:24:48.579Z,8.40
2023-04-17T06:27:17.072Z,8.50
2023-04-17T06:29:45.514Z,8.40
2023-04-17T06:32:17.200Z,8.40
2023-04-17T06:34:58.467Z,8.50
2023-04-17T06:37:48.593Z,8.50
2023-04-17T06:40:17.414Z,8.60
2023-04-17T06:42:45.733Z,8.70
2023-04-17T06:45:20.147Z,8.70
2023-04-17T06:47:50.036Z,8.70
2023-04-17T06:50:18.853Z,8.70
2023-04-17T06:52:47.239Z,8.60
2023-04-17T06:55:15.870Z,8.50
2023-04-17T06:57:44.256Z,8.50
2023-04-17T07:00:13.430Z,8.50
2023-04-17T07:02:41.891Z,8.50
2023-04-17T07:05:12.280Z,8.60
2023-04-17T07:07:41.774Z,8.60
2023-04-17T07:10:10.217Z,8.70
2023-04-17T07:12:38.652Z,8.80
2023-04-17T07:15:07.388Z,8.90
2023-04-17T07:17:35.981Z,8.90
2023-04-17T07:20:05.738Z,9.00
2023-04-17T07:25:06.829Z,9.10
2023-04-17T07:27:35.580Z,9.30
2023-04-17T07:30:03.904Z,9.30
2023-04-17T07:32:32.493Z,9.30
2023-04-17T07:35:01.034Z,9.40
2023-04-17T07:37:29.344Z,9.40
2023-04-17T07:39:57.758Z,9.50
2023-04-17T07:42:28.614Z,9.50
2023-04-17T07:44:57.306Z,9.50
2023-04-17T07:47:25.819Z,9.50
2023-04-17T07:49:54.357Z,9.60
2023-04-17T07:52:22.814Z,9.60
2023-04-17T07:54:51.609Z,9.60
2023-04-17T07:57:19.965Z,9.70
2023-04-17T07:59:49.810Z,9.80
2023-04-17T08:02:19.063Z,9.80
2023-04-17T08:04:49.044Z,9.90
2023-04-17T08:07:18.619Z,9.90
2023-04-17T08:09:46.977Z,9.90
2023-04-17T08:12:15.308Z,9.90
2023-04-17T08:14:43.964Z,10.00
2023-04-17T08:17:13.721Z,10.00
2023-04-17T08:19:42.027Z,10.00
2023-04-17T08:22:10.469Z,10.00
2023-04-17T08:24:38.855Z,10.10
2023-04-17T08:27:08.049Z,9.90
2023-04-17T08:29:36.402Z,9.70
2023-04-17T08:32:13.101Z,9.70
2023-04-17T08:34:45.649Z,9.60
2023-04-17T08:37:17.847Z,9.40
2023-04-17T08:52:20.807Z,9.00
2023-04-17T08:54:51.295Z,9.00
2023-04-17T08:57:20.077Z,9.10
2023-04-17T08:59:48.506Z,9.00
2023-04-17T09:02:17.027Z,9.20
2023-04-17T09:04:47.373Z,9.20
2023-04-17T09:07:16.814Z,9.20
2023-04-17T09:09:53.755Z,9.20
2023-04-17T09:12:22.503Z,9.10
2023-04-17T09:14:52.674Z,9.10
2023-04-17T09:17:21.704Z,9.10
2023-04-17T09:20:05.350Z,9.10
2023-04-17T09:22:34.019Z,9.10
2023-04-17T09:25:03.761Z,9.10
2023-04-17T09:27:32.571Z,9.10
2023-04-17T09:30:02.690Z,9.20
2023-04-17T09:32:31.524Z,9.30
2023-04-17T09:35:00.739Z,9.30
2023-04-17T09:37:45.807Z,9.40
2023-04-17T09:40:15.924Z,9.50
2023-04-17T09:42:55.059Z,9.50
2023-04-17T09:45:24.645Z,9.50
2023-04-17T09:47:55.959Z,9.50
2023-04-17T09:50:25.933Z,9.50
2023-04-17T09:52:55.033Z,9.40
2023-04-17T09:55:26.860Z,9.50
2023-04-17T09:57:56.208Z,9.60
2023-04-17T10:00:27.112Z,9.60
2023-04-17T10:02:56.754Z,9.60
2023-04-17T10:13:02.843Z,9.80
2023-04-17T10:15:31.748Z,9.90
2023-04-17T10:18:14.819Z,9.90
2023-04-17T10:20:45.109Z,9.90
2023-04-17T10:25:42.594Z,10.00
2023-04-17T10:28:13.804Z,10.00
2023-04-17T10:30:52.352Z,10.00
2023-04-17T10:33:24.848Z,10.00
2023-04-17T10:35:53.842Z,10.00
2023-04-17T10:38:32.024Z,9.90
2023-04-17T10:41:02.754Z,9.90
2023-04-17T10:43:32.708Z,9.80
2023-04-17T10:46:05.452Z,9.80
2023-04-17T10:48:35.091Z,9.70
2023-04-17T10:51:23.504Z,9.70
2023-04-17T10:53:52.799Z,9.80
2023-04-17T10:56:21.488Z,9.80
2023-04-17T10:59:01.338Z,9.70
2023-04-17T11:01:31.909Z,9.70
2023-04-17T11:04:00.710Z,9.70
2023-04-17T11:06:29.629Z,9.80
2023-04-17T11:08:58.471Z,9.90
2023-04-17T11:11:40.476Z,9.90
2023-04-17T11:14:14.786Z,9.90
2023-04-17T11:16:45.044Z,9.90
2023-04-17T11:19:14.336Z,10.00
2023-04-17T11:21:43.810Z,10.10
2023-04-17T11:24:12.460Z,10.00
2023-04-17T11:26:44.359Z,10.10
2023-04-17T11:29:17.492Z,10.00
2023-04-17T11:31:47.024Z,9.90
2023-04-17T11:34:16.153Z,9.80
2023-04-17T11:36:49.880Z,9.80
2023-04-17T11:39:18.693Z,9.80
2023-04-17T11:41:47.235Z,9.70
2023-04-17T11:44:15.798Z,9.60
2023-04-17T18:54:27.102Z,6.90
2023-04-17T18:56:55.477Z,6.90
2023-04-17T19:01:54.774Z,6.70
2023-04-17T19:04:23.169Z,6.70
2023-04-17T19:06:51.646Z,6.70
2023-04-17T19:09:20.067Z,6.60
2023-04-17T19:11:49.953Z,6.60
2023-04-17T19:14:18.294Z,6.60
2023-04-17T19:16:47.257Z,6.60
2023-04-17T19:19:18.468Z,6.60
2023-04-17T19:21:46.921Z,6.60
2023-04-17T19:24:15.267Z,6.50
2023-04-17T19:26:43.652Z,6.50
2023-04-17T19:29:13.751Z,6.50
2023-04-17T19:31:42.773Z,6.50
2023-04-17T19:34:11.729Z,6.50
2023-04-17T19:36:40.190Z,6.50
2023-04-17T19:39:08.866Z,6.50
2023-04-17T19:41:37.301Z,6.50
2023-04-17T19:44:05.853Z,6.50
2023-04-17T19:46:35.609Z,6.50
2023-04-17T19:49:03.930Z,6.50
2023-04-17T19:51:32.301Z,6.40
2023-04-17T19:54:01.343Z,6.50
2023-04-17T19:56:29.836Z,6.40
2023-04-17T19:58:58.819Z,6.40
2023-04-17T20:01:27.175Z,6.30
2023-04-17T20:03:57.072Z,6.30
2023-04-17T20:06:25.515Z,6.30
2023-04-17T20:08:56.222Z,6.20
2023-04-17T20:11:24.684Z,6.20
2023-04-17T20:13:53.434Z,6.20
2023-04-17T20:16:22.001Z,6.20
2023-04-17T20:18:53.522Z,6.20
2023-04-17T20:21:25.714Z,6.20
2023-04-17T20:23:55.316Z,6.20
2023-04-17T20:26:23.921Z,6.20
2023-04-17T20:28:54.841Z,6.30
2023-04-17T20:31:23.284Z,6.30
2023-04-17T20:33:51.999Z,6.30
2023-04-17T20:36:20.293Z,6.30
2023-04-17T20:38:50.441Z,6.30
2023-04-17T20:41:19.056Z,6.30
2023-04-17T20:43:47.351Z,6.30
2023-04-17T20:46:18.452Z,6.30
2023-04-17T20:48:49.074Z,6.40
2023-04-17T20:51:18.271Z,6.40
2023-04-17T20:53:46.758Z,6.40
2023-04-17T20:56:16.560Z,6.30
2023-04-17T20:58:44.998Z,6.40
2023-04-17T21:01:13.840Z,6.30
2023-04-17T21:03:43.048Z,6.30
2023-04-17T21:06:14.895Z,6.20
2023-04-17T21:08:43.647Z,6.20
2023-04-17T21:11:12.474Z,6.20
2023-04-17T21:13:42.344Z,6.20
2023-04-17T21:16:14.476Z,6.20
2023-04-17T21:18:42.889Z,6.20
2023-04-17T21:21:11.384Z,6.20
2023-04-17T21:23:39.845Z,6.10
2023-04-17T21:26:08.397Z,6.10
2023-04-17T21:28:37.633Z,6.10
2023-04-17T21:31:10.389Z,6.10
2023-04-17T21:33:39.873Z,6.10
2023-04-17T21:36:08.441Z,6.10
2023-04-17T21:38:36.890Z,6.10
2023-04-17T21:41:05.262Z,6.10
2023-04-17T21:43:34.584Z,6.10
2023-04-17T21:46:02.990Z,6.10
2023-04-17T21:48:32.902Z,6.10
2023-04-17T21:51:02.736Z,6.10
2023-04-17T21:53:31.111Z,6.10
2023-04-17T21:56:04.354Z,6.10
2023-04-17T21:58:34.305Z,6.10
2023-04-17T22:01:02.733Z,6.10
2023-04-17T22:03:32.811Z,6.10
2023-04-17T22:06:03.101Z,6.20
2023-04-17T22:08:31.623Z,6.20
2023-04-17T22:10:59.918Z,6.30
2023-04-17T22:13:28.257Z,6.40
2023-04-17T22:15:58.401Z,6.40
2023-04-17T22:18:27.176Z,6.50
2023-04-17T22:20:56.850Z,6.60
2023-04-17T22:23:25.162Z,6.60
2023-04-17T22:25:53.536Z,6.70
2023-04-17T22:28:21.842Z,6.80
2023-04-17T22:30:51.164Z,6.80
2023-04-17T22:33:19.516Z,6.90
2023-04-17T22:36:00.604Z,6.90
2023-04-17T22:38:30.338Z,6.90
2023-04-17T22:40:58.603Z,6.90
2023-04-17T22:43:26.882Z,6.90
2023-04-17T22:45:55.220Z,6.90
2023-04-17T22:48:24.635Z,6.90
2023-04-17T22:50:53.090Z,6.90
2023-04-17T22:53:22.565Z,6.90
2023-04-17T22:56:02.200Z,6.90
2023-04-17T22:58:32.627Z,6.80
2023-04-17T23:01:01.565Z,6.80
2023-04-17T23:03:29.935Z,6.80
2023-04-17T23:05:58.260Z,6.80
2023-04-17T23:08:26.508Z,6.80
2023-04-17T23:10:59.868Z,6.80
2023-04-17T23:13:29.840Z,6.80
2023-04-17T23:15:58.090Z,6.80
2023-04-17T23:18:26.387Z,6.80
2023-04-17T23:20:54.707Z,6.80
2023-04-17T23:23:22.951Z,6.80
2023-04-17T23:25:51.192Z,6.80
2023-04-17T23:28:19.489Z,6.80
2023-04-17T23:30:49.192Z,6.80
2023-04-17T23:33:17.456Z,6.80
2023-04-17T23:35:49.828Z,6.80
2023-04-17T23:38:18.147Z,6.80
2023-04-17T23:40:46.480Z,6.70
2023-04-17T23:43:15.296Z,6.70
2023-04-17T23:45:43.618Z,6.60
2023-04-17T23:48:13.262Z,6.60
2023-04-17T23:50:42.123Z,6.50
2023-04-17T23:53:10.382Z,6.50
2023-04-17T23:55:38.634Z,6.50
2023-04-17T23:58:07.017Z,6.50
